createdAt,value
2023-04-09T00:02:15.635Z,7.68
2023-04-09T00:07:17.162Z,7.72
2023-04-09T00:12:18.715Z,7.71
2023-04-09T00:17:20.318Z,7.70
2023-04-09T00:22:21.875Z,7.69
2023-04-09T00:27:23.432Z,7.63
2023-04-09T00:32:24.979Z,7.60
2023-04-09T00:37:26.512Z,7.55
2023-04-09T00:42:32.188Z,7.54
2023-04-09T00:47:34.975Z,7.47
2023-04-09T00:52:36.661Z,7.47
2023-04-09T00:57:38.234Z,7.46
2023-04-09T01:02:41.327Z,7.49
2023-04-09T01:08:04.410Z,7.40
2023-04-09T01:13:16.167Z,7.38
2023-04-09T01:18:29.444Z,7.38
2023-04-09T01:23:54.703Z,7.30
2023-04-09T01:28:57.698Z,7.27
2023-04-09T01:34:00.664Z,7.23
2023-04-09T01:39:03.196Z,7.18
2023-04-09T01:44:06.292Z,7.10
2023-04-09T01:49:09.353Z,7.08
2023-04-09T01:54:10.995Z,6.99
2023-04-09T01:59:13.343Z,7.01
2023-04-09T02:04:21.691Z,7.00
2023-04-09T02:09:24.549Z,6.99
2023-04-09T02:14:28.401Z,6.98
2023-04-09T02:19:44.593Z,6.98
2023-04-09T02:24:46.921Z,6.94
2023-04-09T02:29:48.503Z,6.90
2023-04-09T02:34:50.213Z,6.87
2023-04-09T02:39:51.719Z,6.85
2023-04-09T02:44:53.447Z,6.81
2023-04-09T02:49:55.006Z,6.75
2023-04-09T02:54:56.997Z,6.72
2023-04-09T02:59:58.516Z,6.65
2023-04-09T03:05:00.068Z,6.62
2023-04-09T03:10:01.579Z,6.61
2023-04-09T03:15:04.574Z,6.57
2023-04-09T03:20:09.480Z,6.54
2023-04-09T03:25:13.305Z,6.51
2023-04-09T03:30:15.208Z,6.41
2023-04-09T03:35:19.569Z,6.33
2023-04-09T03:40:21.652Z,6.27
2023-04-09T03:45:23.305Z,6.10
2023-04-09T03:50:27.221Z,6.02
2023-04-09T03:55:31.406Z,5.93
2023-04-09T04:00:36.739Z,5.90
2023-04-09T04:06:11.877Z,5.88
2023-04-09T04:11:28.164Z,5.72
2023-04-09T04:16:30.552Z,5.56
2023-04-09T04:21:32.336Z,5.39
2023-04-09T04:26:36.583Z,5.19
2023-04-09T04:31:38.520Z,4.98
2023-04-09T04:36:40.252Z,4.87
2023-04-09T04:41:42.868Z,4.86
2023-04-09T04:46:49.933Z,4.74
2023-04-09T04:51:51.493Z,4.56
2023-04-09T04:56:53.539Z,4.47
2023-04-09T05:02:27.516Z,4.38
2023-04-09T05:07:49.132Z,4.33
2023-04-09T05:12:50.981Z,4.23
2023-04-09T05:18:02.828Z,4.22
2023-04-09T05:23:04.885Z,4.15
2023-04-09T05:28:12.020Z,4.09
2023-04-09T05:33:15.367Z,4.12
2023-04-09T05:38:17.069Z,4.15
2023-04-09T05:43:22.554Z,4.08
2023-04-09T05:48:24.398Z,4.02
2023-04-09T05:53:27.645Z,3.95
2023-04-09T05:58:29.565Z,3.88
2023-04-09T06:03:32.829Z,3.96
2023-04-09T06:08:34.716Z,3.97
2023-04-09T06:13:36.288Z,3.97
2023-04-09T06:18:37.940Z,4.24
2023-04-09T06:23:40.283Z,4.84
2023-04-09T06:28:42.462Z,5.52
2023-04-09T06:33:43.998Z,6.12
2023-04-09T06:38:45.615Z,6.37
2023-04-09T06:43:47.159Z,6.49
2023-04-09T06:48:48.759Z,6.64
2023-04-09T06:53:50.491Z,6.84
2023-04-09T06:58:52.166Z,7.15
2023-04-09T07:03:54.046Z,7.29
2023-04-09T07:08:56.176Z,7.51
2023-04-09T07:13:58.217Z,7.69
2023-04-09T07:18:59.864Z,7.91
2023-04-09T07:24:02.093Z,8.09
2023-04-09T07:29:04.429Z,8.46
2023-04-09T07:34:06.319Z,8.70
2023-04-09T07:39:07.859Z,8.82
2023-04-09T07:44:12.219Z,9.08
2023-04-09T07:49:13.942Z,9.28
2023-04-09T07:54:15.523Z,9.37
2023-04-09T07:59:17.264Z,9.51
2023-04-09T08:04:18.989Z,9.56
2023-04-09T08:09:21.524Z,9.61
2023-04-09T08:14:23.115Z,9.70
2023-04-09T08:19:24.794Z,9.72
2023-04-09T08:24:26.632Z,9.88
2023-04-09T08:29:28.426Z,9.95
2023-04-09T08:34:29.954Z,10.08
2023-04-09T08:39:31.918Z,10.24
2023-04-09T08:44:33.551Z,10.24
2023-04-09T08:49:35.210Z,10.33
2023-04-09T08:54:42.109Z,10.48
2023-04-09T08:59:43.643Z,10.73
2023-04-09T09:04:49.458Z,10.85
2023-04-09T09:09:54.801Z,11.11
2023-04-09T09:14:56.390Z,11.50
2023-04-09T09:19:59.045Z,11.96
2023-04-09T09:25:01.029Z,11.70
2023-04-09T09:30:05.616Z,12.48
2023-04-09T09:35:07.702Z,13.12
2023-04-09T09:40:09.949Z,13.08
2023-04-09T09:45:18.267Z,12.66
2023-04-09T09:50:25.467Z,12.20
2023-04-09T09:55:30.906Z,12.00
2023-04-09T10:00:33.074Z,11.98
2023-04-09T10:05:39.057Z,11.97
2023-04-09T10:10:44.545Z,11.75
2023-04-09T10:15:46.826Z,11.82
2023-04-09T10:21:01.693Z,11.96
2023-04-09T10:26:04.318Z,12.18
2023-04-09T10:31:07.894Z,12.60
2023-04-09T10:36:13.362Z,12.70
2023-04-09T10:41:21.562Z,12.72
2023-04-09T10:46:30.611Z,12.97
2023-04-09T10:51:36.597Z,13.38
2023-04-09T10:56:38.174Z,13.19
2023-04-09T11:01:39.736Z,13.43
2023-04-09T11:06:46.193Z,13.59
2023-04-09T11:11:53.498Z,13.49
2023-04-09T11:16:55.636Z,13.26
2023-04-09T11:21:57.170Z,13.39
2023-04-09T11:27:02.111Z,13.27
2023-04-09T11:32:07.516Z,13.75
2023-04-09T11:37:14.519Z,13.88
2023-04-09T11:42:16.047Z,13.83
2023-04-09T11:47:18.169Z,13.73
2023-04-09T11:52:19.790Z,14.03
2023-04-09T11:57:21.400Z,14.69
2023-04-09T12:02:23.480Z,15.04
2023-04-09T12:07:32.493Z,15.07
2023-04-09T12:12:45.458Z,14.52
2023-04-09T12:17:49.416Z,14.77
2023-04-09T12:22:51.029Z,14.39
2023-04-09T12:27:52.750Z,14.01
2023-04-09T12:32:55.160Z,13.83
2023-04-09T12:37:56.771Z,13.92
2023-04-09T12:42:58.292Z,14.11
2023-04-09T12:47:59.938Z,14.23
2023-04-09T12:53:01.493Z,13.91
2023-04-09T12:58:03.072Z,13.59
2023-04-09T13:03:04.989Z,13.59
2023-04-09T13:08:06.779Z,14.27
2023-04-09T13:13:12.157Z,15.04
2023-04-09T13:18:13.798Z,14.72
2023-04-09T13:23:15.516Z,14.59
2023-04-09T13:28:17.070Z,14.42
2023-04-09T13:33:18.610Z,14.21
2023-04-09T13:38:20.246Z,13.89
2023-04-09T13:43:21.868Z,13.47
2023-04-09T13:48:24.307Z,13.44
2023-04-09T13:53:26.090Z,13.34
2023-04-09T13:58:27.614Z,13.31
2023-04-09T14:03:29.181Z,13.36
2023-04-09T14:08:30.899Z,13.32
2023-04-09T14:13:32.481Z,13.32
2023-04-09T14:18:34.198Z,13.05
2023-04-09T14:23:35.873Z,12.97
2023-04-09T14:28:37.988Z,12.88
2023-04-09T14:33:40.281Z,12.92
2023-04-09T14:38:41.803Z,12.98
2023-04-09T14:43:43.342Z,13.10
2023-04-09T14:48:44.849Z,13.24
2023-04-09T14:53:46.489Z,13.27
2023-04-09T14:58:48.039Z,13.33
2023-04-09T15:03:49.661Z,13.37
2023-04-09T15:08:51.521Z,13.43
2023-04-09T15:13:53.303Z,13.48
2023-04-09T15:18:57.631Z,13.44
2023-04-09T15:23:59.209Z,13.47
2023-04-09T15:29:05.385Z,13.46
2023-04-09T15:34:07.099Z,13.42
2023-04-09T15:39:08.618Z,13.51
2023-04-09T15:44:10.608Z,13.46
2023-04-09T15:49:12.151Z,13.40
2023-04-09T15:54:13.782Z,13.38
2023-04-09T15:59:16.398Z,13.39
2023-04-09T16:04:18.007Z,13.38
2023-04-09T16:09:19.546Z,13.29
2023-04-09T16:14:21.556Z,13.29
2023-04-09T16:19:25.032Z,13.34
2023-04-09T16:24:27.127Z,13.38
2023-04-09T16:29:28.886Z,13.43
2023-04-09T16:34:31.962Z,13.41
2023-04-09T16:39:33.511Z,13.46
2023-04-09T16:44:35.709Z,13.37
2023-04-09T16:49:37.361Z,13.27
2023-04-09T16:54:38.898Z,13.17
2023-04-09T16:59:42.503Z,12.98
2023-04-09T17:04:44.050Z,12.87
2023-04-09T17:09:45.673Z,12.80
2023-04-09T17:14:47.204Z,12.57
2023-04-09T17:19:48.931Z,12.37
2023-04-09T17:24:50.581Z,12.21
2023-04-09T17:29:53.718Z,12.07
2023-04-09T17:34:55.478Z,12.05
2023-04-09T17:39:57.093Z,12.04
2023-04-09T17:44:59.118Z,11.81
2023-04-09T17:50:01.547Z,11.63
2023-04-09T17:55:14.057Z,11.69
2023-04-09T18:00:16.120Z,11.44
2023-04-09T18:05:21.032Z,11.28
2023-04-09T18:10:23.395Z,11.09
2023-04-09T18:15:24.953Z,10.87
2023-04-09T18:20:26.576Z,10.71
2023-04-09T18:25:28.729Z,10.60
2023-04-09T18:30:31.171Z,10.48
2023-04-09T18:35:32.744Z,10.44
2023-04-09T18:40:41.286Z,10.12
2023-04-09T18:45:42.917Z,9.73
2023-04-09T18:50:44.452Z,9.38
2023-04-09T18:55:46.465Z,9.05
2023-04-09T19:00:51.470Z,8.68
2023-04-09T19:05:53.131Z,8.36
2023-04-09T19:10:55.592Z,8.08
2023-04-09T19:15:57.194Z,7.75
2023-04-09T19:20:58.927Z,7.46
2023-04-09T19:26:00.954Z,7.15
2023-04-09T19:31:06.400Z,6.94
2023-04-09T19:36:08.270Z,6.67
2023-04-09T19:41:10.482Z,6.45
2023-04-09T19:46:13.159Z,6.17
2023-04-09T19:51:21.951Z,5.94
2023-04-09T19:56:23.558Z,5.83
2023-04-09T20:01:25.194Z,5.69
2023-04-09T20:06:27.159Z,5.49
2023-04-09T20:11:28.727Z,5.29
2023-04-09T20:16:30.442Z,5.17
2023-04-09T20:21:32.006Z,5.11
2023-04-09T20:26:33.504Z,5.06
2023-04-09T20:31:36.110Z,4.73
2023-04-09T20:36:37.983Z,4.67
2023-04-09T20:41:39.493Z,4.54
2023-04-09T20:46:41.014Z,4.52
2023-04-09T20:51:42.596Z,4.43
2023-04-09T20:56:44.619Z,4.34
2023-04-09T21:01:46.191Z,4.42
2023-04-09T21:06:47.843Z,4.56
2023-04-09T21:11:49.455Z,4.66
2023-04-09T21:16:52.345Z,4.81
2023-04-09T21:21:54.341Z,4.76
2023-04-09T21:26:56.077Z,4.89
2023-04-09T21:31:57.594Z,4.88
2023-04-09T21:36:59.189Z,5.07
2023-04-09T21:42:00.728Z,5.08
2023-04-09T21:47:07.430Z,4.74
2023-04-09T21:52:14.525Z,4.55
2023-04-09T21:57:16.470Z,4.35
2023-04-09T22:02:18.534Z,4.03
2023-04-09T22:07:20.382Z,3.76
2023-04-09T22:12:21.895Z,3.66
2023-04-09T22:17:23.462Z,3.70
2023-04-09T22:22:25.001Z,3.75
2023-04-09T22:27:26.795Z,3.95
2023-04-09T22:32:28.845Z,4.28
2023-04-09T22:37:30.789Z,4.17
2023-04-09T22:42:33.049Z,3.72
2023-04-09T22:47:34.962Z,3.31
2023-04-09T22:52:36.602Z,3.31
2023-04-09T22:57:38.445Z,3.23
2023-04-09T23:02:40.209Z,3.22
2023-04-09T23:07:42.745Z,3.04
2023-04-09T23:12:44.321Z,3.01
2023-04-09T23:17:45.893Z,2.81
2023-04-09T23:22:48.018Z,2.66
2023-04-09T23:27:49.703Z,2.51
2023-04-09T23:32:57.032Z,3.31
2023-04-09T23:37:59.196Z,3.54
2023-04-09T23:43:00.748Z,3.92
2023-04-09T23:48:03.636Z,4.02
2023-04-09T23:53:05.446Z,4.45
2023-04-09T23:58:07.678Z,4.33
